createdAt,value
2019-05-01T00:02:35.862Z,50.28
2019-05-01T00:05:10.664Z,50.20
2019-05-01T00:07:40.311Z,50.74
2019-05-01T00:10:10.477Z,50.65
2019-05-01T00:12:40.195Z,51.01
2019-05-01T00:15:11.299Z,51.51
2019-05-01T00:17:41.012Z,51.37
2019-05-01T00:20:10.835Z,51.68
2019-05-01T00:22:40.457Z,51.89
2019-05-01T00:25:10.125Z,51.97
2019-05-01T00:27:39.749Z,52.82
2019-05-01T00:30:11.285Z,52.43
2019-05-01T00:32:40.904Z,52.44
2019-05-01T00:35:10.617Z,52.60
2019-05-01T00:37:40.242Z,52.57
2019-05-01T00:40:10.631Z,53.30
2019-05-01T00:42:40.251Z,53.08
2019-05-01T00:45:09.968Z,53.61
2019-05-01T00:47:39.658Z,53.96
2019-05-01T00:50:09.445Z,54.49
2019-05-01T00:52:39.091Z,54.22
2019-05-01T00:55:26.525Z,54.56
2019-05-01T00:57:57.788Z,54.92
2019-05-01T01:00:29.069Z,54.68
2019-05-01T01:02:58.973Z,54.48
2019-05-01T01:05:28.927Z,54.69
2019-05-01T01:07:58.552Z,55.15
2019-05-01T01:10:28.501Z,55.55
2019-05-01T01:12:58.126Z,54.71
2019-05-01T01:15:27.778Z,55.01
2019-05-01T01:17:57.410Z,55.17
2019-05-01T01:20:27.248Z,55.37
2019-05-01T01:22:57.377Z,55.07
2019-05-01T01:25:27.899Z,55.44
2019-05-01T01:27:57.527Z,56.07
2019-05-01T01:30:27.240Z,55.54
2019-05-01T01:32:56.873Z,56.04
2019-05-01T01:35:26.533Z,55.46
2019-05-01T01:37:56.157Z,55.94
2019-05-01T01:40:25.806Z,55.69
2019-05-01T01:42:57.616Z,55.91
2019-05-01T01:45:34.314Z,55.33
2019-05-01T01:48:11.656Z,55.52
2019-05-01T01:50:44.235Z,55.26
2019-05-01T01:53:16.443Z,55.80
2019-05-01T01:55:47.094Z,55.48
2019-05-01T01:58:17.877Z,57.84
2019-05-01T02:00:49.140Z,56.56
2019-05-01T02:03:19.532Z,57.46
2019-05-01T02:05:49.199Z,57.76
2019-05-01T02:08:18.824Z,57.49
2019-05-01T02:10:48.551Z,56.81
2019-05-01T02:13:18.239Z,57.31
2019-05-01T02:15:47.896Z,57.80
2019-05-01T02:18:17.516Z,57.76
2019-05-01T02:20:47.161Z,57.95
2019-05-01T02:23:16.809Z,57.77
2019-05-01T02:25:46.446Z,58.38
2019-05-01T02:28:26.752Z,58.80
2019-05-01T02:31:27.004Z,57.74
2019-05-01T02:33:47.336Z,57.04
2019-05-01T02:36:19.068Z,58.13
2019-05-01T02:38:49.949Z,57.66
2019-05-01T02:41:20.677Z,57.63
2019-05-01T02:43:53.011Z,57.78
2019-05-01T02:46:25.180Z,58.53
2019-05-01T02:49:03.438Z,58.25
2019-05-01T02:51:33.887Z,57.74
2019-05-01T02:54:03.910Z,57.62
2019-05-01T02:56:35.833Z,57.76
2019-05-01T02:59:06.513Z,57.22
2019-05-01T03:01:46.905Z,57.96
2019-05-01T03:04:10.422Z,57.80
2019-05-01T03:06:40.772Z,59.09
2019-05-01T03:09:10.868Z,58.45
2019-05-01T03:11:42.127Z,59.69
2019-05-01T03:14:14.815Z,58.76
2019-05-01T03:16:46.068Z,59.55
2019-05-01T03:19:35.983Z,60.30
2019-05-01T03:22:23.770Z,61.57
2019-05-01T03:24:53.645Z,62.76
2019-05-01T03:27:23.440Z,63.70
2019-05-01T03:29:53.161Z,64.26
2019-05-01T03:32:22.945Z,64.82
2019-05-01T03:34:53.453Z,64.55
2019-05-01T03:37:23.138Z,64.71
2019-05-01T03:39:53.325Z,64.44
2019-05-01T03:42:23.109Z,64.93
2019-05-01T03:44:53.132Z,65.34
2019-05-01T03:47:23.287Z,65.97
2019-05-01T03:49:53.276Z,66.38
2019-05-01T03:52:23.028Z,65.84
2019-05-01T03:54:53.016Z,65.51
2019-05-01T03:57:22.968Z,65.92
2019-05-01T03:59:52.781Z,66.16
2019-05-01T04:02:33.863Z,66.39
2019-05-01T04:04:56.801Z,66.36
2019-05-01T04:07:26.747Z,66.70
2019-05-01T04:09:56.532Z,66.76
2019-05-01T04:12:26.586Z,66.50
2019-05-01T04:14:56.463Z,66.36
2019-05-01T04:17:28.193Z,66.50
2019-05-01T04:19:58.285Z,66.27
2019-05-01T04:22:27.907Z,66.27
2019-05-01T04:24:57.924Z,66.48
2019-05-01T04:27:29.378Z,64.98
2019-05-01T04:30:03.497Z,64.26
2019-05-01T04:32:50.825Z,63.34
2019-05-01T04:35:19.346Z,62.41
2019-05-01T04:37:49.757Z,62.42
2019-05-01T04:40:19.943Z,62.06
2019-05-01T04:42:49.588Z,62.27
2019-05-01T04:45:19.802Z,62.18
2019-05-01T04:47:49.787Z,60.88
2019-05-01T04:50:19.593Z,59.38
2019-05-01T04:52:49.223Z,58.89
2019-05-01T04:55:19.475Z,58.88
2019-05-01T04:57:49.655Z,58.98
2019-05-01T05:00:19.372Z,59.71
2019-05-01T05:03:03.584Z,58.93
2019-05-01T05:05:22.924Z,59.03
2019-05-01T05:07:52.721Z,59.03
2019-05-01T05:10:22.407Z,58.41
2019-05-01T05:12:57.143Z,58.37
2019-05-01T05:15:43.531Z,58.24
2019-05-01T05:18:13.655Z,58.40
2019-05-01T05:20:43.290Z,57.76
2019-05-01T05:23:13.000Z,58.25
2019-05-01T05:25:42.987Z,57.34
2019-05-01T05:28:13.594Z,58.28
2019-05-01T05:30:44.919Z,57.79
2019-05-01T05:33:18.801Z,56.86
2019-05-01T05:35:50.415Z,56.41
2019-05-01T05:38:40.942Z,55.95
2019-05-01T05:41:11.005Z,56.81
2019-05-01T05:43:40.992Z,55.99
2019-05-01T05:46:10.817Z,55.42
2019-05-01T05:48:40.714Z,55.09
2019-05-01T05:51:21.134Z,55.49
2019-05-01T05:53:58.317Z,55.16
2019-05-01T05:56:35.113Z,54.58
2019-05-01T05:59:07.977Z,54.62
2019-05-01T06:01:44.930Z,54.28
2019-05-01T06:04:21.160Z,54.88
2019-05-01T06:07:10.481Z,54.00
2019-05-01T06:09:48.443Z,52.90
2019-05-01T06:12:22.191Z,52.42
2019-05-01T06:15:02.297Z,52.29
2019-05-01T06:17:37.853Z,52.51
2019-05-01T06:20:10.276Z,53.58
2019-05-01T06:22:58.460Z,54.54
2019-05-01T06:25:33.840Z,55.33
2019-05-01T06:28:03.571Z,54.11
2019-05-01T06:30:34.039Z,53.95
2019-05-01T06:33:08.818Z,53.51
2019-05-01T06:35:38.246Z,54.28
2019-05-01T06:38:17.569Z,53.61
2019-05-01T06:40:53.197Z,53.41
2019-05-01T06:43:28.458Z,53.34
2019-05-01T06:46:12.124Z,52.02
2019-05-01T06:48:55.110Z,52.18
2019-05-01T06:51:35.282Z,52.34
2019-05-01T06:54:11.471Z,53.36
2019-05-01T06:56:40.873Z,52.34
2019-05-01T06:59:10.989Z,52.31
2019-05-01T07:01:41.043Z,50.58
2019-05-01T07:04:10.870Z,51.38
2019-05-01T07:06:40.559Z,50.17
2019-05-01T07:09:11.983Z,49.52
2019-05-01T07:11:42.713Z,48.18
2019-05-01T07:14:16.072Z,49.11
2019-05-01T07:16:45.473Z,48.58
2019-05-01T07:19:16.171Z,49.53
2019-05-01T07:21:45.797Z,46.83
2019-05-01T07:24:15.588Z,47.48
2019-05-01T07:26:48.038Z,47.91
2019-05-01T07:29:18.228Z,49.36
2019-05-01T07:31:47.928Z,49.03
2019-05-01T07:34:21.565Z,47.18
2019-05-01T07:36:50.172Z,44.99
2019-05-01T07:39:20.687Z,44.78
2019-05-01T07:41:50.443Z,41.68
2019-05-01T07:44:24.503Z,38.01
2019-05-01T07:47:04.831Z,39.63
2019-05-01T07:49:52.779Z,37.23
2019-05-01T07:52:21.880Z,36.48
2019-05-01T07:54:52.170Z,36.68
2019-05-01T07:57:23.056Z,35.02
2019-05-01T07:59:52.906Z,36.06
2019-05-01T08:02:25.854Z,35.88
2019-05-01T08:04:53.901Z,36.38
2019-05-01T08:07:27.819Z,34.12
2019-05-01T08:09:54.981Z,32.82
2019-05-01T08:12:25.891Z,32.37
2019-05-01T08:14:55.835Z,33.48
2019-05-01T08:17:27.125Z,33.13
2019-05-01T08:20:01.401Z,32.53
2019-05-01T08:22:37.340Z,31.48
2019-05-01T08:25:04.948Z,32.46
2019-05-01T08:27:50.920Z,31.30
2019-05-01T08:30:24.241Z,29.90
2019-05-01T08:33:14.685Z,28.00
2019-05-01T08:35:44.992Z,28.99
2019-05-01T08:38:14.656Z,28.92
2019-05-01T08:40:44.271Z,27.81
2019-05-01T08:43:18.175Z,28.26
2019-05-01T08:45:46.893Z,28.25
2019-05-01T08:48:20.815Z,28.58
2019-05-01T08:50:50.456Z,28.92
2019-05-01T08:53:22.061Z,27.66
2019-05-01T08:55:51.415Z,26.61
2019-05-01T08:58:21.074Z,26.51
2019-05-01T09:00:50.697Z,26.97
2019-05-01T09:03:20.760Z,26.76
2019-05-01T09:05:52.225Z,26.50
2019-05-01T09:08:22.241Z,26.43
2019-05-01T09:10:54.634Z,26.57
2019-05-01T09:13:23.911Z,25.86
2019-05-01T09:15:54.420Z,24.72
2019-05-01T09:18:24.462Z,25.25
2019-05-01T09:20:56.021Z,26.33
2019-05-01T09:23:25.690Z,24.60
2019-05-01T09:26:15.923Z,24.58
2019-05-01T09:28:48.823Z,23.43
2019-05-01T09:31:20.097Z,23.60
2019-05-01T09:33:49.748Z,23.39
2019-05-01T09:36:19.376Z,22.79
2019-05-01T09:38:50.116Z,22.25
2019-05-01T09:41:19.872Z,22.84
2019-05-01T09:43:49.519Z,22.71
2019-05-01T09:46:19.154Z,22.59
2019-05-01T09:48:48.885Z,22.80
2019-05-01T09:51:36.064Z,23.11
2019-05-01T09:54:11.003Z,22.80
2019-05-01T09:56:40.733Z,22.58
2019-05-01T09:59:12.555Z,23.35
2019-05-01T10:01:41.700Z,22.14
2019-05-01T10:04:11.321Z,21.42
2019-05-01T10:06:40.975Z,19.91
2019-05-01T10:09:11.959Z,19.31
2019-05-01T10:11:42.511Z,18.31
2019-05-01T10:14:12.137Z,19.14
2019-05-01T10:16:41.787Z,17.47
2019-05-01T10:19:11.414Z,18.21
2019-05-01T10:21:41.063Z,18.39
2019-05-01T10:24:10.692Z,17.55
2019-05-01T10:26:41.973Z,16.84
2019-05-01T10:29:16.038Z,17.69
2019-05-01T10:31:59.396Z,17.87
2019-05-01T10:34:33.353Z,17.27
2019-05-01T10:37:03.012Z,17.42
2019-05-01T10:39:32.640Z,17.52
2019-05-01T10:42:02.294Z,17.42
2019-05-01T10:44:31.921Z,18.09
2019-05-01T10:47:02.096Z,18.71
2019-05-01T10:49:31.878Z,19.66
2019-05-01T10:52:13.631Z,20.36
2019-05-01T10:54:32.860Z,21.39
2019-05-01T10:57:03.344Z,20.98
2019-05-01T10:59:33.827Z,20.31
2019-05-01T11:02:05.120Z,21.75
2019-05-01T11:04:34.764Z,22.73
2019-05-01T11:07:04.405Z,23.50
2019-05-01T11:09:34.036Z,25.05
2019-05-01T11:12:03.697Z,23.82
2019-05-01T11:14:33.320Z,24.49
2019-05-01T11:17:03.179Z,24.94
2019-05-01T11:19:32.806Z,25.92
2019-05-01T11:22:02.457Z,27.99
2019-05-01T11:24:32.077Z,29.01
2019-05-01T11:27:01.932Z,29.72
2019-05-01T11:29:31.586Z,29.32
2019-05-01T11:32:02.893Z,30.22
2019-05-01T11:34:40.012Z,30.49
2019-05-01T11:37:23.100Z,31.01
2019-05-01T11:40:03.398Z,30.70
2019-05-01T11:42:33.066Z,30.76
2019-05-01T11:45:02.695Z,30.56
2019-05-01T11:47:32.357Z,30.89
2019-05-01T11:50:01.985Z,31.83
2019-05-01T11:52:31.641Z,31.96
2019-05-01T11:55:01.291Z,32.40
2019-05-01T11:57:30.942Z,33.32
2019-05-01T12:00:00.598Z,34.83
2019-05-01T12:02:30.326Z,35.69
2019-05-01T12:04:59.984Z,35.95
2019-05-01T12:07:29.614Z,36.77
2019-05-01T12:09:59.280Z,36.26
2019-05-01T12:12:30.652Z,36.17
2019-05-01T12:15:00.300Z,36.65
2019-05-01T12:17:34.414Z,36.70
2019-05-01T12:20:06.307Z,36.48
2019-05-01T12:22:35.938Z,36.10
2019-05-01T12:25:07.234Z,36.23
2019-05-01T12:27:36.866Z,35.78
2019-05-01T12:30:08.763Z,36.41
2019-05-01T12:32:38.385Z,37.21
2019-05-01T12:35:08.209Z,36.51
2019-05-01T12:37:41.527Z,35.98
2019-05-01T12:40:13.622Z,35.14
2019-05-01T12:42:43.254Z,35.11
2019-05-01T12:45:13.952Z,35.02
2019-05-01T12:47:45.217Z,35.27
2019-05-01T12:50:15.224Z,35.21
2019-05-01T12:52:46.655Z,35.76
2019-05-01T12:55:18.124Z,36.27
2019-05-01T12:57:47.754Z,36.41
2019-05-01T13:00:19.150Z,36.15
2019-05-01T13:02:48.782Z,35.88
2019-05-01T13:05:18.438Z,36.12
2019-05-01T13:07:48.074Z,35.84
2019-05-01T13:10:17.725Z,36.45
2019-05-01T13:12:47.355Z,35.15
2019-05-01T13:15:17.627Z,35.62
2019-05-01T13:17:47.358Z,35.81
2019-05-01T13:20:17.008Z,35.91
2019-05-01T13:22:46.638Z,36.41
2019-05-01T13:25:16.294Z,37.43
2019-05-01T13:27:50.498Z,38.01
2019-05-01T13:30:30.814Z,38.81
2019-05-01T13:33:00.517Z,39.56
2019-05-01T13:35:30.619Z,40.44
2019-05-01T13:38:00.297Z,40.74
2019-05-01T13:40:29.949Z,41.54
2019-05-01T13:42:59.584Z,42.32
2019-05-01T13:45:29.245Z,42.37
2019-05-01T13:47:59.618Z,43.06
2019-05-01T13:50:29.282Z,43.87
2019-05-01T13:52:58.916Z,44.33
2019-05-01T13:55:28.643Z,46.03
2019-05-01T13:57:58.295Z,47.89
2019-05-01T14:00:27.955Z,57.83
2019-05-01T14:02:57.602Z,64.99
2019-05-01T14:05:27.761Z,69.26
2019-05-01T14:07:58.306Z,74.36
2019-05-01T14:10:27.973Z,79.78
2019-05-01T14:12:57.604Z,81.07
2019-05-01T14:15:27.423Z,81.96
2019-05-01T14:17:57.078Z,83.70
2019-05-01T14:20:34.376Z,86.25
2019-05-01T14:23:20.214Z,83.21
2019-05-01T14:26:05.782Z,84.14
2019-05-01T14:28:36.019Z,85.64
2019-05-01T14:31:06.509Z,84.50
2019-05-01T14:33:36.200Z,80.83
2019-05-01T14:36:05.889Z,83.36
2019-05-01T14:38:35.560Z,80.49
2019-05-01T14:41:05.295Z,81.92
2019-05-01T14:43:35.069Z,78.56
2019-05-01T14:46:04.848Z,82.05
2019-05-01T14:48:34.517Z,78.67
2019-05-01T14:51:04.223Z,77.89
2019-05-01T14:53:33.894Z,77.43
2019-05-01T14:56:03.552Z,76.69
2019-05-01T14:58:33.229Z,76.90
2019-05-01T15:01:02.869Z,76.96
2019-05-01T15:03:32.635Z,71.33
2019-05-01T15:06:02.267Z,74.60
2019-05-01T15:08:31.926Z,73.75
2019-05-01T15:11:01.565Z,74.25
2019-05-01T15:13:47.721Z,73.21
2019-05-01T15:16:31.060Z,72.29
2019-05-01T15:19:05.163Z,69.54
2019-05-01T15:21:34.799Z,73.39
2019-05-01T15:24:04.646Z,72.78
2019-05-01T15:26:34.284Z,70.40
2019-05-01T15:29:04.116Z,69.40
2019-05-01T15:31:33.846Z,74.60
2019-05-01T15:34:03.687Z,64.82
2019-05-01T15:36:33.326Z,67.07
2019-05-01T15:39:04.647Z,65.41
2019-05-01T15:41:35.918Z,65.90
2019-05-01T15:44:07.228Z,66.88
2019-05-01T15:46:38.506Z,64.42
2019-05-01T15:49:08.163Z,61.95
2019-05-01T15:51:37.800Z,63.27
2019-05-01T15:54:07.761Z,62.24
2019-05-01T15:56:37.391Z,61.07
2019-05-01T15:59:07.062Z,59.33
2019-05-01T16:01:36.703Z,58.84
2019-05-01T16:04:06.532Z,62.15
2019-05-01T16:06:36.185Z,61.27
2019-05-01T16:09:07.282Z,58.54
2019-05-01T16:11:56.959Z,56.91
2019-05-01T16:14:26.620Z,55.45
2019-05-01T16:16:56.254Z,53.17
2019-05-01T16:19:25.917Z,52.41
2019-05-01T16:21:55.973Z,54.62
2019-05-01T16:24:25.609Z,52.09
2019-05-01T16:26:55.257Z,51.58
2019-05-01T16:29:24.886Z,52.90
2019-05-01T16:31:54.548Z,51.17
2019-05-01T16:34:24.495Z,49.15
2019-05-01T16:36:54.496Z,49.92
2019-05-01T16:39:41.701Z,50.04
2019-05-01T16:42:11.431Z,50.19
2019-05-01T16:44:41.066Z,52.64
2019-05-01T16:47:10.718Z,50.27
2019-05-01T16:49:40.354Z,51.02
2019-05-01T16:52:10.005Z,49.49
2019-05-01T16:54:39.637Z,50.95
2019-05-01T16:57:10.931Z,50.52
2019-05-01T16:59:40.557Z,56.04
2019-05-01T17:02:20.765Z,50.32
2019-05-01T17:05:08.197Z,50.88
2019-05-01T17:07:45.244Z,51.62
2019-05-01T17:10:16.682Z,49.86
2019-05-01T17:12:53.812Z,52.27
2019-05-01T17:15:28.462Z,53.47
2019-05-01T17:17:58.120Z,52.63
2019-05-01T17:20:28.027Z,56.57
2019-05-01T17:22:57.687Z,56.51
2019-05-01T17:25:29.549Z,56.41
2019-05-01T17:28:02.968Z,55.07
2019-05-01T17:30:41.421Z,55.16
2019-05-01T17:33:19.616Z,58.37
2019-05-01T17:35:43.234Z,57.50
2019-05-01T17:38:13.051Z,58.04
2019-05-01T17:40:42.684Z,57.63
2019-05-01T17:43:13.439Z,56.73
2019-05-01T17:45:43.362Z,59.91
2019-05-01T17:48:13.033Z,59.24
2019-05-01T17:50:42.695Z,58.36
2019-05-01T17:53:12.354Z,58.29
2019-05-01T17:55:41.986Z,58.34
2019-05-01T17:58:11.659Z,59.22
2019-05-01T18:00:43.069Z,61.09
2019-05-01T18:03:14.366Z,61.76
2019-05-01T18:06:03.162Z,61.73
2019-05-01T18:08:32.904Z,63.43
2019-05-01T18:11:02.563Z,65.35
2019-05-01T18:13:32.225Z,64.85
2019-05-01T18:16:01.951Z,66.84
2019-05-01T18:18:31.655Z,64.91
2019-05-01T18:21:01.318Z,65.20
2019-05-01T18:23:49.522Z,64.84
2019-05-01T18:26:23.487Z,65.59
2019-05-01T18:29:09.807Z,61.99
2019-05-01T18:31:39.470Z,62.88
2019-05-01T18:34:09.174Z,64.54
2019-05-01T18:36:40.538Z,64.38
2019-05-01T18:39:16.825Z,62.35
2019-05-01T18:42:00.604Z,63.06
2019-05-01T18:44:30.249Z,63.12
2019-05-01T18:46:59.920Z,63.38
2019-05-01T18:49:29.547Z,63.83
2019-05-01T18:51:59.214Z,62.65
2019-05-01T18:54:30.420Z,62.68
2019-05-01T18:57:00.219Z,62.54
2019-05-01T18:59:29.852Z,62.02
2019-05-01T19:02:01.364Z,63.47
2019-05-01T19:04:30.982Z,61.70
2019-05-01T19:07:00.732Z,61.59
2019-05-01T19:09:30.881Z,61.82
2019-05-01T19:12:00.509Z,60.76
2019-05-01T19:14:31.054Z,60.29
2019-05-01T19:17:00.805Z,60.07
2019-05-01T19:19:30.422Z,59.99
2019-05-01T19:22:00.085Z,60.82
2019-05-01T19:24:32.604Z,60.17
2019-05-01T19:27:01.225Z,60.67
2019-05-01T19:29:32.097Z,61.26
2019-05-01T19:32:02.299Z,60.72
2019-05-01T19:34:31.929Z,61.26
2019-05-01T19:37:01.730Z,62.26
2019-05-01T19:39:42.902Z,62.75
2019-05-01T19:42:02.796Z,62.31
2019-05-01T19:44:32.424Z,62.55
2019-05-01T19:47:02.082Z,62.92
2019-05-01T19:49:31.806Z,63.96
2019-05-01T19:52:02.035Z,64.16
2019-05-01T19:54:31.783Z,64.79
2019-05-01T19:57:01.418Z,65.33
2019-05-01T19:59:31.138Z,65.66
2019-05-01T20:02:00.926Z,65.12
2019-05-01T20:04:30.566Z,64.94
2019-05-01T20:07:00.220Z,65.21
2019-05-01T20:09:29.969Z,65.50
2019-05-01T20:11:59.671Z,65.90
2019-05-01T20:14:29.361Z,65.95
2019-05-01T20:16:58.975Z,66.81
2019-05-01T20:19:28.812Z,66.71
2019-05-01T20:21:58.442Z,68.19
2019-05-01T20:24:28.110Z,67.65
2019-05-01T20:26:57.746Z,67.47
2019-05-01T20:29:27.597Z,67.75
2019-05-01T20:31:57.333Z,68.00
2019-05-01T20:34:27.342Z,67.30
2019-05-01T20:36:56.982Z,66.76
2019-05-01T20:39:26.642Z,67.84
2019-05-01T20:41:56.283Z,68.37
2019-05-01T20:44:25.961Z,67.98
2019-05-01T20:46:58.564Z,68.96
2019-05-01T20:49:27.346Z,69.06
2019-05-01T20:51:56.988Z,69.06
2019-05-01T20:54:26.656Z,68.39
2019-05-01T20:57:00.631Z,68.76
2019-05-01T20:59:30.294Z,68.52
2019-05-01T21:02:07.626Z,68.94
2019-05-01T21:04:47.525Z,70.01
2019-05-01T21:07:20.204Z,70.11
2019-05-01T21:09:56.776Z,69.93
2019-05-01T21:12:22.979Z,69.49
2019-05-01T21:14:52.711Z,69.63
2019-05-01T21:17:22.345Z,69.58
2019-05-01T21:19:54.346Z,69.67
2019-05-01T21:22:23.557Z,69.99
2019-05-01T21:24:53.381Z,70.55
2019-05-01T21:27:24.329Z,70.09
2019-05-01T21:29:54.554Z,70.42
2019-05-01T21:32:27.502Z,70.00
2019-05-01T21:34:55.774Z,70.01
2019-05-01T21:37:25.408Z,71.27
2019-05-01T21:39:55.430Z,71.09
2019-05-01T21:42:25.062Z,71.18
2019-05-01T21:44:55.167Z,71.60
2019-05-01T21:47:24.790Z,71.65
2019-05-01T21:49:54.449Z,72.28
2019-05-01T21:52:26.761Z,72.72
2019-05-01T21:54:57.091Z,73.10
2019-05-01T21:57:27.861Z,72.91
2019-05-01T21:59:58.236Z,74.04
2019-05-01T22:02:27.893Z,72.79
2019-05-01T22:04:57.534Z,73.68
2019-05-01T22:07:28.140Z,72.43
2019-05-01T22:09:58.656Z,73.12
2019-05-01T22:12:28.304Z,73.26
2019-05-01T22:15:06.286Z,73.10
2019-05-01T22:17:38.005Z,74.10
2019-05-01T22:20:08.235Z,73.62
2019-05-01T22:22:44.164Z,73.44
2019-05-01T22:25:15.182Z,73.59
2019-05-01T22:27:46.465Z,74.00
2019-05-01T22:30:23.990Z,74.04
2019-05-01T22:32:55.175Z,74.08
2019-05-01T22:35:26.433Z,74.67
2019-05-01T22:37:56.086Z,74.85
2019-05-01T22:40:43.917Z,75.01
2019-05-01T22:43:13.573Z,74.93
2019-05-01T22:45:43.202Z,75.29
2019-05-01T22:48:12.851Z,75.25
2019-05-01T22:50:42.479Z,75.72
2019-05-01T22:53:12.958Z,75.39
2019-05-01T22:55:43.439Z,75.89
2019-05-01T22:58:14.523Z,75.99
2019-05-01T23:00:51.887Z,76.16
2019-05-01T23:03:23.249Z,76.13
2019-05-01T23:05:53.073Z,76.32
2019-05-01T23:08:22.757Z,76.27
2019-05-01T23:10:52.520Z,76.57
2019-05-01T23:13:22.148Z,76.64
2019-05-01T23:15:56.229Z,77.04
2019-05-01T23:18:23.608Z,77.35
2019-05-01T23:20:53.717Z,77.65
2019-05-01T23:23:23.407Z,77.86
2019-05-01T23:25:53.073Z,77.96
2019-05-01T23:28:22.693Z,77.83
2019-05-01T23:30:52.463Z,78.33
2019-05-01T23:33:22.083Z,78.29
2019-05-01T23:35:52.253Z,77.92
2019-05-01T23:38:21.874Z,77.90
2019-05-01T23:40:52.941Z,78.32
2019-05-01T23:43:23.002Z,77.88
2019-05-01T23:45:54.073Z,77.75
2019-05-01T23:48:23.700Z,77.85
2019-05-01T23:50:53.643Z,77.61
2019-05-01T23:53:23.636Z,77.45
2019-05-01T23:55:54.714Z,77.57
2019-05-01T23:58:25.100Z,77.63
